Time;durP1;ratioP1;P1;durP2;ratioP2;P2;SDS_P1;SDS_P2;PMS_P1;PMS_P2;Temp;Humidity;BMP_temperature;BMP_pressure;BME280_temperature;BME280_humidity;BME280_pressure;Samples;Min_cycle;Max_cycle;Signal;HPM_P1;HPM_P2
2022/07/09 00:01:03;;;;;;;5.03;3.15;;;;;;;14.11;100.00;101821.50;5084685;28;20080;-67
2022/07/09 00:03:28;;;;;;;4.95;3.35;;;;;;;14.07;100.00;101814.59;5060348;28;20506;-67
2022/07/09 00:05:54;;;;;;;4.32;2.65;;;;;;;14.11;100.00;101816.19;5069843;28;20036;-67
2022/07/09 00:08:19;;;;;;;3.85;2.45;;;;;;;14.07;100.00;101814.59;5074715;28;20036;-67
2022/07/09 00:10:44;;;;;;;3.70;2.53;;;;;;;13.91;100.00;101797.66;5081381;28;20356;-67
2022/07/09 00:13:10;;;;;;;3.92;2.33;;;;;;;13.98;100.00;101809.72;5090255;28;20025;-67
2022/07/09 00:15:35;;;;;;;4.63;2.67;;;;;;;13.99;100.00;101806.13;5067802;28;20040;-67
2022/07/09 00:18:01;;;;;;;4.75;2.80;;;;;;;13.68;100.00;101758.13;5080671;28;20082;-67
2022/07/09 00:20:26;;;;;;;3.17;2.13;;;;;;;13.88;100.00;101797.81;5080642;28;20028;-67
2022/07/09 00:22:52;;;;;;;5.30;2.95;;;;;;;13.94;100.00;101802.81;5068089;28;20029;-67
2022/07/09 00:25:17;;;;;;;4.80;2.38;;;;;;;13.87;100.00;101785.50;5068381;28;20040;-67
2022/07/09 00:27:42;;;;;;;5.03;2.63;;;;;;;13.82;100.00;101783.03;5071238;28;20025;-67
2022/07/09 00:30:08;;;;;;;4.93;2.75;;;;;;;13.86;100.00;101785.59;5068398;28;20517;-67
2022/07/09 00:32:34;;;;;;;3.85;2.22;;;;;;;13.76;100.00;101778.03;5068014;28;20049;-67
2022/07/09 00:34:59;;;;;;;4.32;2.70;;;;;;;13.74;100.00;101792.22;5063977;28;20425;-67
2022/07/09 00:37:24;;;;;;;4.95;2.35;;;;;;;13.54;100.00;101786.88;5078929;28;20032;-67
2022/07/09 00:39:50;;;;;;;5.75;2.88;;;;;;;13.56;100.00;101796.47;5063835;28;20379;-68
2022/07/09 00:42:15;;;;;;;5.00;3.15;;;;;;;13.61;100.00;101794.50;5077126;28;20055;-68
2022/07/09 00:44:40;;;;;;;5.28;2.63;;;;;;;13.62;100.00;101793.56;5064161;28;20025;-68
2022/07/09 00:47:07;;;;;;;8.35;3.25;;;;;;;13.67;100.00;101799.53;5071977;28;20532;-68
2022/07/09 00:49:43;;;;;;;4.35;2.00;;;;;;;13.66;100.00;101796.94;5072174;28;20062;-68
2022/07/09 00:52:14;;;;;;;4.78;2.85;;;;;;;13.64;100.00;101794.38;5081450;28;20040;-68
2022/07/09 00:54:40;;;;;;;4.47;3.08;;;;;;;13.59;100.00;101787.53;5089050;28;20031;-68
2022/07/09 00:57:07;;;;;;;4.03;2.35;;;;;;;13.65;100.00;101793.44;5076470;28;20028;-68
2022/07/09 00:59:34;;;;;;;6.57;2.92;;;;;;;13.62;100.00;101790.91;5063922;28;20436;-68
2022/07/09 01:02:00;;;;;;;6.03;2.95;;;;;;;13.61;100.00;101789.22;5068028;28;20110;-68
2022/07/09 01:04:26;;;;;;;4.80;2.78;;;;;;;13.59;100.00;101788.41;5053666;28;20079;-68
2022/07/09 01:06:51;;;;;;;3.83;2.45;;;;;;;13.60;100.00;101791.91;5057782;28;20483;-68
2022/07/09 01:09:17;;;;;;;3.67;2.60;;;;;;;13.50;100.00;101775.59;5072329;28;20025;-68
2022/07/09 01:11:42;;;;;;;5.45;2.95;;;;;;;13.41;100.00;101764.53;5071281;28;20033;-69
2022/07/09 01:14:07;;;;;;;5.35;3.10;;;;;;;13.53;100.00;101790.44;5085363;27;20429;-69
2022/07/09 01:16:34;;;;;;;5.25;2.80;;;;;;;13.46;100.00;101784.53;5069631;28;20056;-69
2022/07/09 01:19:00;;;;;;;4.47;3.15;;;;;;;13.49;100.00;101788.84;5075335;28;20051;-68
2022/07/09 01:21:26;;;;;;;3.88;2.75;;;;;;;13.36;100.00;101767.34;5078102;28;20024;-68
2022/07/09 01:23:51;;;;;;;6.32;3.53;;;;;;;13.46;100.00;101778.41;5068770;28;20029;-68
2022/07/09 01:26:19;;;;;;;5.45;3.20;;;;;;;13.45;100.00;101787.25;5065135;28;20033;-68
2022/07/09 01:28:45;;;;;;;4.93;2.75;;;;;;;13.31;100.00;101766.69;5070505;28;20029;-68
2022/07/09 01:31:10;;;;;;;5.82;3.35;;;;;;;13.35;100.00;101778.81;5053379;28;20032;-68
2022/07/09 01:33:36;;;;;;;7.63;3.28;;;;;;;13.38;100.00;101777.88;5080833;28;20112;-68
2022/07/09 01:36:01;;;;;;;4.68;3.30;;;;;;;13.28;100.00;101770.28;5083293;28;20494;-68
2022/07/09 01:38:26;;;;;;;5.32;2.80;;;;;;;13.35;100.00;101780.63;5080812;28;20064;-68
2022/07/09 01:40:52;;;;;;;5.80;3.47;;;;;;;13.24;100.00;101763.44;5056434;28;20031;-68
2022/07/09 01:43:17;;;;;;;6.82;4.13;;;;;;;13.26;100.00;101772.13;5065503;28;20091;-68
2022/07/09 01:45:42;;;;;;;4.38;3.13;;;;;;;13.23;100.00;101769.63;5068455;28;20046;-68
2022/07/09 01:48:08;;;;;;;6.32;3.60;;;;;;;13.29;100.00;101779.94;5075185;28;20547;-68
2022/07/09 01:50:33;;;;;;;5.57;3.33;;;;;;;13.24;100.00;101771.34;5060204;28;20028;-68
2022/07/09 01:52:59;;;;;;;8.25;3.65;;;;;;;13.21;100.00;101762.69;5053844;28;20527;-68
2022/07/09 01:55:24;;;;;;;5.55;3.13;;;;;;;13.15;100.00;101753.22;5054236;28;20341;-67
2022/07/09 01:57:49;;;;;;;4.63;3.60;;;;;;;13.21;100.00;101762.69;5057647;28;20107;-67
2022/07/09 02:00:15;;;;;;;5.97;3.38;;;;;;;13.14;100.00;101756.78;5057841;28;20111;-67
2022/07/09 02:02:40;;;;;;;5.47;3.30;;;;;;;13.10;100.00;101749.91;5061848;28;20067;-68
2022/07/09 02:05:06;;;;;;;5.38;3.25;;;;;;;13.10;100.00;101760.47;5069185;28;20131;-67
2022/07/09 02:07:32;;;;;;;4.93;3.40;;;;;;;13.09;100.00;101757.88;5062197;28;20098;-67
2022/07/09 02:09:57;;;;;;;9.25;3.97;;;;;;;13.02;100.00;101746.66;5062954;28;20024;-67
2022/07/09 02:12:23;;;;;;;5.97;3.70;;;;;;;13.01;100.00;101737.00;5058625;28;20143;-67
2022/07/09 02:14:49;;;;;;;9.75;4.00;;;;;;;12.85;100.00;101712.16;5078933;28;20029;-67
2022/07/09 02:17:14;;;;;;;8.45;4.75;;;;;;;12.99;100.00;101735.38;5073728;28;20020;-68
2022/07/09 02:19:40;;;;;;;6.45;4.20;;;;;;;13.06;100.00;101737.72;5094727;27;20024;-67
2022/07/09 02:22:05;;;;;;;9.90;3.97;;;;;;;12.67;100.00;101676.78;5091225;28;20043;-68
2022/07/09 02:24:31;;;;;;;6.63;4.22;;;;;;;13.00;100.00;101735.31;5071097;28;20040;-68
2022/07/09 02:26:56;;;;;;;5.80;4.32;;;;;;;12.99;100.00;101738.88;5063360;28;20135;-68
2022/07/09 02:29:21;;;;;;;8.50;4.80;;;;;;;12.95;100.00;101733.75;5029904;28;20090;-68
2022/07/09 02:31:47;;;;;;;6.65;4.53;;;;;;;12.98;100.00;101738.94;5074030;28;20024;-68
2022/07/09 02:34:12;;;;;;;6.97;5.05;;;;;;;12.85;100.00;101727.97;5067065;28;20151;-68
2022/07/09 02:36:37;;;;;;;6.75;4.35;;;;;;;12.86;100.00;101737.63;5072855;28;20332;-68
2022/07/09 02:39:03;;;;;;;6.68;4.93;;;;;;;12.82;100.00;101730.72;5071208;28;20390;-68
2022/07/09 02:41:28;;;;;;;6.53;5.03;;;;;;;12.75;100.00;101711.66;5083739;28;20363;-68
2022/07/09 02:43:54;;;;;;;8.50;5.18;;;;;;;12.88;100.00;101727.00;5050685;28;20081;-68
2022/07/09 02:46:19;;;;;;;6.03;4.82;;;;;;;12.86;100.00;101718.28;5054371;28;20110;-68
2022/07/09 02:48:44;;;;;;;6.18;5.50;;;;;;;12.86;100.00;101724.44;5051730;28;20047;-68
2022/07/09 02:51:10;;;;;;;9.63;5.88;;;;;;;12.86;100.00;101719.16;5082448;28;20035;-68
2022/07/09 02:53:35;;;;;;;8.02;5.57;;;;;;;12.82;100.00;101717.53;5079286;28;20028;-68
2022/07/09 02:56:00;;;;;;;8.48;6.38;;;;;;;12.72;100.00;101700.34;5066816;28;20063;-68
2022/07/09 02:58:26;;;;;;;8.15;5.47;;;;;;;12.76;100.00;101717.78;5038328;28;20090;-68
2022/07/09 03:00:51;;;;;;;13.07;5.40;;;;;;;12.77;100.00;101711.59;5047412;28;20025;-68
2022/07/09 03:03:17;;;;;;;7.72;5.28;;;;;;;12.77;100.00;101725.63;5064359;28;20040;-68
2022/07/09 03:05:42;;;;;;;6.22;5.07;;;;;;;12.74;100.00;101724.91;5052648;28;20032;-68
2022/07/09 03:08:08;;;;;;;8.73;5.65;;;;;;;12.17;100.00;101639.13;5073718;28;20033;-68
2022/07/09 03:10:34;;;;;;;8.00;5.68;;;;;;;12.71;100.00;101730.28;5051144;28;20470;-68
2022/07/09 03:12:59;;;;;;;6.72;4.78;;;;;;;12.29;100.00;101659.78;5061377;28;20025;-68
2022/07/09 03:15:25;;;;;;;8.95;5.82;;;;;;;12.53;100.00;101715.16;5072781;28;20468;-67
2022/07/09 03:17:50;;;;;;;8.68;5.72;;;;;;;12.52;100.00;101718.69;5070090;28;20414;-68
2022/07/09 03:20:15;;;;;;;8.85;5.65;;;;;;;12.50;100.00;101718.78;5063231;28;20024;-68
2022/07/09 03:22:41;;;;;;;8.45;6.22;;;;;;;12.49;100.00;101718.81;5086466;28;20067;-68
2022/07/09 03:25:07;;;;;;;9.90;7.95;;;;;;;12.55;100.00;101724.72;5078352;28;20031;-68
2022/07/09 03:27:33;;;;;;;11.32;8.10;;;;;;;12.45;100.00;101711.94;5086750;28;20032;-68
2022/07/09 03:29:59;;;;;;;11.75;7.65;;;;;;;12.52;100.00;101726.59;5068587;28;20406;-68
2022/07/09 03:32:25;;;;;;;10.00;8.50;;;;;;;12.53;100.00;101725.69;5057606;28;20024;-68
2022/07/09 03:34:52;;;;;;;10.77;8.15;;;;;;;12.55;100.00;101732.63;5067991;28;20032;-68
2022/07/09 03:37:17;;;;;;;11.35;7.65;;;;;;;12.49;100.00;101713.53;5076432;28;20020;-68
2022/07/09 03:39:43;;;;;;;11.27;7.93;;;;;;;12.24;100.00;101687.22;5063453;28;20036;-68
2022/07/09 03:42:08;;;;;;;10.35;8.40;;;;;;;12.38;100.00;101706.03;5060629;28;20047;-68
2022/07/09 03:44:34;;;;;;;20.92;7.88;;;;;;;12.42;100.00;101720.81;5063723;28;20027;-68
2022/07/09 03:47:00;;;;;;;9.77;6.80;;;;;;;12.10;100.00;101664.00;5073977;28;20373;-68
2022/07/09 03:49:26;;;;;;;10.85;7.30;;;;;;;12.45;100.00;101723.34;5080171;28;20024;-68
2022/07/09 03:51:51;;;;;;;9.95;6.22;;;;;;;12.45;100.00;101719.84;5074253;28;20434;-68
2022/07/09 03:54:17;;;;;;;11.23;7.05;;;;;;;12.50;100.00;101723.19;5076106;28;20501;-69
2022/07/09 03:56:42;;;;;;;8.60;6.32;;;;;;;12.46;100.00;101727.69;5062857;28;20459;-68
2022/07/09 03:59:07;;;;;;;16.27;6.85;;;;;;;12.48;100.00;101733.78;5078310;28;20126;-68
2022/07/09 04:01:33;;;;;;;10.35;7.70;;;;;;;12.46;100.00;101724.19;5069424;28;20027;-68
2022/07/09 04:03:58;;;;;;;11.02;8.13;;;;;;;12.49;100.00;101727.59;5077265;28;20417;-68
2022/07/09 04:06:24;;;;;;;10.75;7.20;;;;;;;12.53;100.00;101726.56;5062195;28;20021;-68
2022/07/09 04:08:49;;;;;;;10.55;8.02;;;;;;;12.55;100.00;101734.41;5047313;28;20083;-69
2022/07/09 04:11:15;;;;;;;11.35;8.57;;;;;;;12.26;100.00;101677.50;5059760;28;20067;-68
2022/07/09 04:13:40;;;;;;;10.50;8.30;;;;;;;12.59;100.00;101725.47;5061335;28;20109;-68
2022/07/09 04:16:06;;;;;;;11.52;9.10;;;;;;;12.61;100.00;101729.75;5076168;28;20030;-68
2022/07/09 04:18:31;;;;;;;14.98;9.13;;;;;;;12.40;100.00;101690.16;5073779;28;20029;-68
2022/07/09 04:20:57;;;;;;;10.77;9.57;;;;;;;12.58;100.00;101721.09;5064534;28;20021;-68
2022/07/09 04:23:23;;;;;;;12.23;10.93;;;;;;;12.70;100.00;101728.56;5058593;28;20450;-68
2022/07/09 04:25:50;;;;;;;13.93;11.63;;;;;;;12.72;100.00;101714.41;5049817;28;20533;-68
2022/07/09 04:28:18;;;;;;;31.65;13.82;;;;;;;12.82;100.00;101722.81;5068396;28;20021;-68
2022/07/09 04:30:47;;;;;;;17.88;15.40;;;;;;;12.85;100.00;101719.19;5055226;28;20029;-68
2022/07/09 04:33:12;;;;;;;15.88;14.23;;;;;;;12.93;100.00;101714.50;5075198;28;20032;-68
2022/07/09 04:35:38;;;;;;;19.02;14.35;;;;;;;13.03;100.00;101718.50;5067801;28;20035;-68
2022/07/09 04:38:03;;;;;;;17.80;14.38;;;;;;;13.08;100.00;101725.31;5056748;28;20039;-68
2022/07/09 04:40:29;;;;;;;15.05;13.10;;;;;;;13.14;100.00;101725.13;5060895;28;20078;-68
2022/07/09 04:42:54;;;;;;;19.83;12.88;;;;;;;13.06;100.00;101703.41;5070704;28;20107;-68
2022/07/09 04:45:20;;;;;;;17.20;14.20;;;;;;;13.08;100.00;101691.00;5043233;28;20029;-68
2022/07/09 04:47:45;;;;;;;20.88;14.05;;;;;;;13.21;100.00;101710.72;5058510;28;20025;-69
2022/07/09 04:50:11;;;;;;;15.02;12.73;;;;;;;13.36;100.00;101713.69;5070974;28;20031;-69
2022/07/09 04:52:37;;;;;;;17.67;12.15;;;;;;;13.47;100.00;101719.41;5054721;28;20103;-69
2022/07/09 04:55:03;;;;;;;19.52;12.32;;;;;;;13.55;100.00;101714.66;5053465;28;20029;-69
2022/07/09 04:57:28;;;;;;;12.48;11.23;;;;;;;13.60;100.00;101712.69;5080768;28;20032;-69
2022/07/09 04:59:58;;;;;;;14.60;13.02;;;;;;;13.65;100.00;101705.44;5062783;28;20155;-69
2022/07/09 05:02:23;;;;;;;16.50;12.57;;;;;;;13.94;100.00;101723.56;5055371;28;20082;-69
2022/07/09 05:04:49;;;;;;;17.08;13.15;;;;;;;14.08;100.00;101726.47;5035952;28;20037;-69
2022/07/09 05:07:14;;;;;;;17.98;14.80;;;;;;;14.07;100.00;101698.31;5037405;28;20097;-69
2022/07/09 05:09:40;;;;;;;17.33;14.15;;;;;;;14.26;100.00;101715.06;5031621;28;20028;-69
2022/07/09 05:12:05;;;;;;;22.50;14.85;;;;;;;14.29;100.00;101714.94;5030291;28;20083;-69
2022/07/09 05:14:31;;;;;;;21.17;13.82;;;;;;;14.39;100.00;101719.84;5032768;28;20823;-69
2022/07/09 05:16:56;;;;;;;26.88;15.43;;;;;;;14.56;100.00;101735.81;5027142;28;20086;-69
2022/07/09 05:19:22;;;;;;;17.10;13.20;;;;;;;14.62;100.00;101724.97;5033704;28;20315;-69
2022/07/09 05:21:47;;;;;;;25.48;13.50;;;;;;;14.65;100.00;101724.81;5033446;28;20028;-68
2022/07/09 05:24:12;;;;;;;25.23;15.00;;;;;;;14.64;100.00;101723.09;5034640;28;20910;-69
2022/07/09 05:26:38;;;;;;;17.10;14.10;;;;;;;14.65;100.00;101732.75;5028881;28;20082;-69
2022/07/09 05:29:03;;;;;;;17.60;13.95;;;;;;;14.74;100.00;101727.03;5018259;28;20839;-69
2022/07/09 05:31:29;;;;;;;22.80;15.68;;;;;;;14.81;100.00;101712.59;5031281;28;20032;-69
2022/07/09 05:33:54;;;;;;;17.65;15.77;;;;;;;14.96;100.00;101717.19;5026207;28;20969;-69
2022/07/09 05:36:20;;;;;;;17.75;15.02;;;;;;;15.04;100.00;101714.19;5042342;28;20032;-69
2022/07/09 05:38:47;;;;;;;20.10;14.98;;;;;;;15.03;100.00;101705.38;5038696;28;20830;-69
2022/07/09 05:41:14;;;;;;;20.88;17.00;;;;;;;15.14;100.00;101718.94;5018111;28;20931;-69
2022/07/09 05:43:39;;;;;;;29.23;14.93;;;;;;;15.16;100.00;101706.50;5040510;28;20036;-69
2022/07/09 05:46:05;;;;;;;19.67;16.17;;;;;;;15.25;100.00;101710.47;5031534;28;20024;-69
2022/07/09 05:48:30;;;;;;;21.77;19.10;;;;;;;15.37;100.00;101707.25;5054780;28;20531;-68
2022/07/09 05:50:55;;;;;;;18.73;15.38;;;;;;;15.47;100.00;101708.50;5070540;28;20024;-69
2022/07/09 05:53:21;;;;;;;25.52;20.73;;;;;;;15.48;100.00;101704.09;5070935;28;20036;-68
2022/07/09 05:55:46;;;;;;;27.38;18.30;;;;;;;15.54;100.00;101711.75;5082836;28;20025;-69
2022/07/09 05:58:12;;;;;;;23.95;20.33;;;;;;;15.60;100.00;101716.75;5073542;28;20888;-68
2022/07/09 06:00:38;;;;;;;25.35;20.40;;;;;;;15.63;100.00;101713.94;5073199;28;20033;-69
2022/07/09 06:03:03;;;;;;;25.92;20.42;;;;;;;15.67;100.00;101708.41;5069246;28;20107;-68
2022/07/09 06:05:28;;;;;;;25.83;20.88;;;;;;;15.73;100.00;101716.03;5072028;28;20063;-69
2022/07/09 06:07:54;;;;;;;26.40;21.30;;;;;;;15.88;100.00;101719.72;5072736;28;20021;-69
2022/07/09 06:10:19;;;;;;;31.30;19.55;;;;;;;16.00;100.00;101718.22;5072598;28;20440;-68
2022/07/09 06:12:45;;;;;;;25.83;19.88;;;;;;;16.05;100.00;101708.25;5053362;28;20081;-68
2022/07/09 06:15:11;;;;;;;23.92;19.40;;;;;;;16.20;100.00;101713.59;5069342;28;20021;-69
2022/07/09 06:17:36;;;;;;;23.30;16.73;;;;;;;16.16;100.00;101677.56;5063267;28;20052;-69
2022/07/09 06:20:02;;;;;;;25.02;17.95;;;;;;;16.54;100.00;101714.47;5067786;28;20033;-68
2022/07/09 06:22:28;;;;;;;18.75;15.40;;;;;;;16.82;100.00;101714.72;5066576;28;20067;-65
2022/07/09 06:24:53;;;;;;;18.73;13.85;;;;;;;17.08;100.00;101716.78;5084425;28;20044;-69
2022/07/09 06:27:18;;;;;;;18.25;12.63;;;;;;;17.22;100.00;101708.88;5062085;28;20061;-69
2022/07/09 06:29:44;;;;;;;21.92;14.20;;;;;;;17.33;100.00;101701.19;5077834;28;20028;-68
2022/07/09 06:32:09;;;;;;;15.57;10.48;;;;;;;17.46;100.00;101709.28;5075833;28;20059;-69
2022/07/09 06:34:35;;;;;;;24.98;13.02;;;;;;;17.60;100.00;101725.34;5071521;28;20394;-68
2022/07/09 06:37:00;;;;;;;14.63;10.52;;;;;;;17.65;100.00;101711.75;5057659;28;20064;-68
2022/07/09 06:42:09;;;;;;;13.88;11.40;;;;;;;17.85;100.00;101703.47;5079145;28;20090;-68
2022/07/09 06:44:35;;;;;;;17.10;11.20;;;;;;;18.05;100.00;101700.47;5057624;28;20434;-68
2022/07/09 06:47:00;;;;;;;15.63;9.65;;;;;;;18.34;100.00;101717.31;5072102;28;20103;-69
2022/07/09 06:49:26;;;;;;;15.27;10.40;;;;;;;18.39;100.00;101718.75;5083226;28;20088;-69
2022/07/09 06:51:51;;;;;;;14.23;8.85;;;;;;;18.24;100.00;101695.75;5084336;28;20028;-69
2022/07/09 06:54:16;;;;;;;12.07;8.27;;;;;;;18.38;100.00;101711.69;5071204;28;20041;-69
2022/07/09 06:56:42;;;;;;;11.52;8.73;;;;;;;18.32;100.00;101709.41;5066622;28;20032;-69
2022/07/09 06:59:07;;;;;;;11.95;8.43;;;;;;;18.35;100.00;101703.91;5061442;28;20464;-69
2022/07/09 07:01:32;;;;;;;14.55;9.40;;;;;;;18.37;100.00;101717.13;5065434;28;20036;-69
2022/07/09 07:03:58;;;;;;;16.38;8.40;;;;;;;18.30;100.00;101716.66;5058533;28;20526;-69
2022/07/09 07:06:23;;;;;;;14.48;10.05;;;;;;;18.21;100.00;101695.06;5072058;28;20021;-69
2022/07/09 07:08:48;;;;;;;17.17;12.35;;;;;;;18.37;100.00;101717.13;5057140;28;20028;-69
2022/07/09 07:11:14;;;;;;;17.88;11.75;;;;;;;18.47;100.00;101715.63;5062872;28;20403;-69
2022/07/09 07:13:39;;;;;;;16.60;12.35;;;;;;;18.49;100.00;101697.72;5053109;28;20035;-69
2022/07/09 07:16:05;;;;;;;17.42;11.93;;;;;;;18.70;100.00;101706.22;5053663;28;20514;-69
2022/07/09 07:18:31;;;;;;;14.30;10.65;;;;;;;18.78;100.00;101706.59;5064818;28;20115;-69
2022/07/09 07:20:56;;;;;;;16.00;10.48;;;;;;;18.85;100.00;101707.94;5064651;28;20456;-69
2022/07/09 07:23:21;;;;;;;16.60;9.95;;;;;;;18.99;100.00;101723.03;5055804;28;20032;-69
2022/07/09 07:25:47;;;;;;;14.32;9.55;;;;;;;19.13;100.00;101720.34;5053607;28;20025;-69
2022/07/09 07:28:13;;;;;;;10.82;8.40;;;;;;;19.16;100.00;101715.63;5051784;28;20028;-69
2022/07/09 07:30:38;;;;;;;12.13;8.23;;;;;;;19.22;100.00;101717.06;5061672;28;20421;-69
2022/07/09 07:33:04;;;;;;;11.77;7.25;;;;;;;19.35;100.00;101720.63;5063623;28;20025;-69
2022/07/09 07:35:29;;;;;;;14.63;7.50;;;;;;;19.30;100.00;101702.28;5088161;28;20038;-69
2022/07/09 07:37:55;;;;;;;11.15;6.25;;;;;;;19.27;100.00;101683.81;5067179;28;20029;-69
2022/07/09 07:40:21;;;;;;;9.80;6.68;;;;;;;19.52;100.00;101709.75;5055318;28;20031;-69
2022/07/09 07:42:46;;;;;;;8.48;5.10;;;;;;;19.66;100.00;101716.84;5072844;28;20487;-69
2022/07/09 07:45:12;;;;;;;7.95;5.18;;;;;;;19.69;100.00;101716.63;5069132;28;20036;-69
2022/07/09 07:47:37;;;;;;;8.80;5.07;;;;;;;19.67;100.00;101707.88;5063605;28;20028;-69
2022/07/09 07:50:03;;;;;;;10.98;4.78;;;;;;;19.49;100.00;101672.63;5069800;28;20040;-69
2022/07/09 07:52:28;;;;;;;8.35;5.40;;;;;;;19.50;100.00;101689.50;5082318;28;20060;-69
2022/07/09 07:54:54;;;;;;;9.00;5.38;;;;;;;19.61;100.00;101706.47;5052061;28;20116;-70
2022/07/09 07:57:19;;;;;;;8.45;4.20;;;;;;;19.76;100.00;101718.78;5061509;28;20027;-69
2022/07/09 07:59:46;;;;;;;7.30;4.68;;;;;;;19.76;100.00;101694.78;5056324;28;20056;-70
2022/07/09 08:02:12;;;;;;;6.88;3.80;;;;;;;19.92;100.00;101699.91;5065927;28;20039;-69
2022/07/09 08:04:37;;;;;;;8.32;4.65;;;;;;;19.93;100.00;101698.97;5071289;28;20375;-69
2022/07/09 08:07:02;;;;;;;8.27;5.10;;;;;;;19.95;100.00;101707.72;5071155;28;20060;-69
2022/07/09 08:09:28;;;;;;;9.27;5.97;;;;;;;19.98;100.00;101706.63;5058039;28;20121;-69
2022/07/09 08:11:54;;;;;;;10.00;5.10;;;;;;;19.99;100.00;101695.88;5062822;28;20052;-69
2022/07/09 08:14:20;;;;;;;8.27;5.65;;;;;;;20.12;100.00;101707.41;5054878;28;20031;-68
2022/07/09 08:16:45;;;;;;;9.70;6.50;;;;;;;20.29;100.00;101707.13;5081352;28;20076;-69
2022/07/09 08:19:11;;;;;;;7.28;5.65;;;;;;;20.29;100.00;101675.09;5068500;28;20082;-69
2022/07/09 08:21:36;;;;;;;10.80;6.28;;;;;;;20.59;100.00;101693.41;5081530;28;20790;-69
2022/07/09 08:24:04;;;;;;;10.88;5.50;;;;;;;20.41;100.00;101656.50;5080308;28;20060;-69
2022/07/09 08:26:30;;;;;;;7.25;4.60;;;;;;;20.63;100.00;101696.72;5072071;28;20055;-69
2022/07/09 08:28:56;;;;;;;7.32;4.78;;;;;;;20.61;100.00;101696.00;5094504;28;20028;-69
2022/07/09 08:31:22;;;;;;;8.63;5.18;;;;;;;20.47;100.00;101698.78;5073149;28;20075;-69
2022/07/09 08:33:47;;;;;;;7.30;4.50;;;;;;;20.56;100.00;101706.13;5084320;28;20025;-69
2022/07/09 08:36:13;;;;;;;8.15;4.50;;;;;;;20.75;100.00;101693.19;5083431;28;20110;-69
2022/07/09 08:38:39;;;;;;;7.55;4.93;;;;;;;20.76;100.00;101689.53;5074280;28;20463;-69
2022/07/09 08:41:05;;;;;;;6.57;4.43;;;;;;;20.80;100.00;101701.72;5064362;28;20021;-69
2022/07/09 08:43:35;;;;;;;14.00;5.00;;;;;;;21.00;100.00;101698.47;5067588;28;20029;-71
2022/07/09 08:46:01;;;;;;;8.23;4.80;;;;;;;21.15;100.00;101689.38;5071931;28;20093;-69
2022/07/09 08:48:26;;;;;;;7.60;4.50;;;;;;;21.38;100.00;101690.31;5059971;28;20032;-68
2022/07/09 08:50:52;;;;;;;10.82;4.03;;;;;;;21.47;100.00;101683.41;5060976;28;20111;-69
2022/07/09 08:53:18;;;;;;;4.65;2.80;;;;;;;21.54;100.00;101692.69;5060015;28;20108;-68
2022/07/09 08:55:46;;;;;;;9.02;3.75;;;;;;;21.40;100.00;101673.19;5051259;28;20598;-68
2022/07/09 08:58:13;;;;;;;7.15;3.13;;;;;;;21.48;100.00;101685.13;5098546;27;20030;-69
2022/07/09 09:00:40;;;;;;;6.10;2.88;;;;;;;21.64;100.00;101683.84;5073946;28;20032;-69
2022/07/09 09:03:05;;;;;;;4.95;3.00;;;;;;;21.73;100.00;101667.09;5059233;28;20813;-68
2022/07/09 09:05:31;;;;;;;5.05;2.83;;;;;;;21.71;100.00;101641.41;5061928;28;20121;-65
2022/07/09 09:07:57;;;;;;;6.00;2.33;;;;;;;21.94;100.00;101675.31;5058104;28;20033;-69
2022/07/09 09:10:23;;;;;;;6.65;2.75;;;;;;;21.65;100.00;101657.97;5059864;28;20098;-69
2022/07/09 09:12:54;;;;;;;8.38;3.22;;;;;;;21.51;100.00;101676.88;5066835;28;20041;-70
2022/07/09 09:15:20;;;;;;;5.72;2.78;;;;;;;21.30;100.00;101657.94;5053023;28;20068;-68
2022/07/09 09:17:45;;;;;;;6.18;2.58;;;;;;;21.35;100.00;101659.31;5069338;28;20072;-68
2022/07/09 09:20:15;;;;;;;5.22;2.88;;;;;;;21.57;100.00;101665.69;5061640;28;20399;-69
2022/07/09 09:22:49;;;;;;;7.50;2.40;;;;;;;21.70;100.00;101650.41;5068392;28;20486;-69
2022/07/09 09:25:21;;;;;;;11.40;2.28;;;;;;;21.84;100.00;101642.19;5074237;28;20111;-69
2022/07/09 09:27:57;;;;;;;5.47;3.45;;;;;;;22.06;100.00;101660.16;5060218;28;20020;-68
2022/07/09 09:30:24;;;;;;;4.78;2.85;;;;;;;22.08;100.00;101651.03;5076954;28;20078;-70
2022/07/09 09:33:03;;;;;;;7.93;2.85;;;;;;;22.03;100.00;101637.16;5067548;28;20510;-69
2022/07/09 09:35:35;;;;;;;7.72;2.63;;;;;;;22.02;100.00;101643.47;5089698;28;20062;-69
2022/07/09 09:38:01;;;;;;;5.03;2.63;;;;;;;21.89;100.00;101645.38;5068474;28;20024;-68
2022/07/09 09:40:27;;;;;;;6.32;2.97;;;;;;;21.84;100.00;101631.47;5080169;28;20038;-70
2022/07/09 09:42:52;;;;;;;5.70;2.33;;;;;;;21.95;100.00;101642.25;5060189;28;20104;-69
2022/07/09 09:45:18;;;;;;;4.20;2.40;;;;;;;22.00;100.00;101633.88;5069563;28;20033;-69
2022/07/09 09:47:47;;;;;;;4.22;2.63;;;;;;;22.03;100.00;101610.38;5063358;28;20040;-70
2022/07/09 09:50:19;;;;;;;4.35;2.55;;;;;;;22.23;100.00;101631.09;5072001;28;20027;-70
2022/07/09 09:52:50;;;;;;;7.15;2.88;;;;;;;22.36;100.00;101625.59;5074835;28;20111;-70
2022/07/09 09:55:17;;;;;;;4.47;2.63;;;;;;;22.34;100.00;101614.13;5082084;28;20092;-69
2022/07/09 09:57:42;;;;;;;7.75;2.65;;;;;;;22.41;100.00;101610.84;5047533;28;20036;-70
2022/07/09 10:00:12;;;;;;;5.28;3.05;;;;;;;22.67;100.00;101632.06;5068534;28;20052;-70
2022/07/09 10:02:45;;;;;;;5.30;2.90;;;;;;;22.89;100.00;101637.34;5084840;28;20499;-69
2022/07/09 10:05:11;;;;;;;7.13;3.13;;;;;;;22.98;100.00;101620.53;5058944;28;20078;-69
2022/07/09 10:07:36;;;;;;;4.97;2.58;;;;;;;23.02;100.00;101635.38;5067997;28;20036;-70
2022/07/09 10:10:06;;;;;;;4.80;2.55;;;;;;;22.82;100.00;101644.19;5059385;28;20120;-69
2022/07/09 10:12:35;;;;;;;7.15;3.22;;;;;;;22.75;100.00;101640.31;5071013;28;20035;-68
2022/07/09 10:15:01;;;;;;;4.60;3.03;;;;;;;22.71;100.00;101622.78;5059781;28;20037;-69
2022/07/09 10:17:27;;;;;;;6.28;3.28;;;;;;;22.64;100.00;101608.16;5068925;28;20042;-69
2022/07/09 10:19:54;;;;;;;7.07;2.75;;;;;;;22.82;100.00;101630.78;5071500;28;20033;-69
2022/07/09 10:22:20;;;;;;;3.83;2.35;;;;;;;22.84;100.00;101628.84;5055787;28;20029;-69
2022/07/09 10:24:48;;;;;;;3.97;2.22;;;;;;;22.89;100.00;101618.59;5066125;28;20467;-70
2022/07/09 10:27:14;;;;;;;6.43;3.03;;;;;;;23.14;100.00;101626.31;5061505;28;20039;-71
2022/07/09 10:29:54;;;;;;;5.05;2.95;;;;;;;23.31;100.00;101641.00;5060678;28;20108;-68
2022/07/09 10:32:33;;;;;;;5.35;3.22;;;;;;;23.16;100.00;101608.25;5073142;28;20025;-69
2022/07/09 10:35:00;;;;;;;5.78;2.95;;;;;;;23.29;100.00;101621.47;5058422;28;20059;-69
2022/07/09 10:37:40;;;;;;;7.57;3.83;;;;;;;23.30;100.00;101625.88;5068224;28;20033;-68
2022/07/09 10:40:10;;;;;;;7.78;3.22;;;;;;;22.88;100.00;101620.41;5058944;28;20679;-68
2022/07/09 10:42:36;;;;;;;10.93;3.92;;;;;;;22.61;100.00;101611.09;5063017;28;20048;-69
2022/07/09 10:45:02;;;;;;;8.35;3.28;;;;;;;22.51;100.00;101597.56;5060186;28;20441;-68
2022/07/09 10:47:39;;;;;;;7.25;3.88;;;;;;;22.37;100.00;101582.59;5072837;28;20036;-69
2022/07/09 10:50:05;;;;;;;11.05;4.07;;;;;;;22.47;100.00;101597.94;5053322;28;20040;-70
2022/07/09 10:52:31;;;;;;;6.25;3.50;;;;;;;22.39;100.00;101596.72;5064713;28;20051;-69
2022/07/09 10:54:56;;;;;;;7.63;4.35;;;;;;;22.30;100.00;101591.28;5059579;28;20033;-69
2022/07/09 10:57:22;;;;;;;7.07;3.13;;;;;;;22.28;100.00;101575.31;5062092;28;20502;-69
2022/07/09 10:59:47;;;;;;;7.30;4.53;;;;;;;22.50;100.00;101595.00;5058090;28;20131;-68
2022/07/09 11:02:20;;;;;;;5.72;4.05;;;;;;;22.54;100.00;101596.47;5083798;28;20110;-69
2022/07/09 11:04:50;;;;;;;7.90;4.30;;;;;;;22.51;100.00;101599.41;5084025;28;20032;-70
2022/07/09 11:07:24;;;;;;;6.93;3.67;;;;;;;22.54;100.00;101593.81;5056561;28;20031;-70
2022/07/09 11:09:51;;;;;;;5.75;2.92;;;;;;;22.79;100.00;101598.88;5071216;28;20021;-69